Terminal Aerodrome Forecast
Issued by NWS

Home | Current Version | Previous Version | Text Only | Print | Product List | Glossary On
Versions: 1 2 3 4 5 6 7 8 9 10 11 12 13 14 15 16 17
567
FTUS43 KMPX 252051 AAA
TAFRNH
TAF AMD
KRNH 252051Z 2521/2618 24013G20KT P6SM VCSH OVC040
     FM260000 26012KT P6SM BKN040
     FM261300 28014G23KT P6SM SKC
     FM261600 29020G31KT P6SM SCT045=

USA.gov is the U.S. government's official web portal to all federal, state and local government web resources and services.